Time;durP1;ratioP1;P1;durP2;ratioP2;P2;SDS_P1;SDS_P2;PMS_P1;PMS_P2;Temp;Humidity;BMP_temperature;BMP_pressure;BME280_temperature;BME280_humidity;BME280_pressure;Samples;Min_cycle;Max_cycle;Signal;HPM_P1;HPM_P2
2022/12/31 00:00:39;;;;;;;2.33;1.70;;;11.20;99.90;;;;;;5073664;28;20468;-71
2022/12/31 00:03:08;;;;;;;1.97;1.87;;;11.30;99.90;;;;;;5073894;28;20486;-72
2022/12/31 00:05:36;;;;;;;2.00;1.90;;;11.30;99.90;;;;;;5073955;28;20504;-72
2022/12/31 00:08:03;;;;;;;1.90;1.80;;;11.40;99.90;;;;;;5073728;28;20864;-71
2022/12/31 00:10:30;;;;;;;1.90;1.80;;;11.40;99.90;;;;;;5073691;28;20467;-71
2022/12/31 00:12:56;;;;;;;2.00;1.80;;;11.50;99.90;;;;;;5073611;28;20444;-72
2022/12/31 00:15:23;;;;;;;1.80;1.70;;;11.50;99.90;;;;;;5073205;28;20456;-71
2022/12/31 00:17:50;;;;;;;1.57;1.47;;;11.50;99.90;;;;;;5073718;28;20563;-71
2022/12/31 00:20:18;;;;;;;1.40;1.30;;;11.60;99.90;;;;;;5073072;28;20492;-72
2022/12/31 00:22:44;;;;;;;1.40;1.30;;;11.60;99.90;;;;;;5073292;28;20924;-71
2022/12/31 00:25:11;;;;;;;1.40;1.30;;;11.60;99.90;;;;;;5072999;28;20452;-72
2022/12/31 00:27:38;;;;;;;1.50;1.40;;;11.60;99.90;;;;;;5073382;28;20515;-71
2022/12/31 00:30:05;;;;;;;1.40;1.30;;;11.60;99.90;;;;;;5072931;28;20487;-72
2022/12/31 00:32:32;;;;;;;6.30;1.30;;;11.70;99.90;;;;;;5073646;28;20495;-72
2022/12/31 00:34:58;;;;;;;1.27;1.17;;;11.70;99.90;;;;;;5073147;28;20448;-72
2022/12/31 00:37:26;;;;;;;1.20;1.10;;;11.70;99.90;;;;;;5073234;28;21007;-72
2022/12/31 00:39:53;;;;;;;1.40;1.30;;;11.70;99.90;;;;;;5072483;28;20477;-72
2022/12/31 00:42:19;;;;;;;1.40;1.30;;;11.80;99.90;;;;;;5073193;28;20461;-71
2022/12/31 00:44:46;;;;;;;1.50;1.40;;;11.80;99.90;;;;;;5072830;28;20454;-72
2022/12/31 00:47:13;;;;;;;1.33;1.23;;;11.80;99.90;;;;;;5072395;28;20446;-72
2022/12/31 00:49:39;;;;;;;1.60;1.50;;;11.80;99.90;;;;;;5072389;28;20516;-72
2022/12/31 00:52:06;;;;;;;1.47;1.37;;;11.90;99.90;;;;;;5072685;28;20450;-72
2022/12/31 00:54:34;;;;;;;1.30;1.20;;;11.90;99.90;;;;;;5072068;28;20932;-71
2022/12/31 00:57:01;;;;;;;1.43;1.33;;;11.90;99.90;;;;;;5072613;28;20484;-72
2022/12/31 00:59:27;;;;;;;1.97;1.27;;;11.90;99.90;;;;;;5072648;28;20473;-72
2022/12/31 01:01:54;;;;;;;1.50;1.40;;;11.90;99.90;;;;;;5072386;28;20944;-72
2022/12/31 01:04:21;;;;;;;1.90;1.37;;;12.00;99.90;;;;;;5072234;28;20451;-71
2022/12/31 01:06:48;;;;;;;1.27;1.17;;;12.00;99.90;;;;;;5072654;28;20445;-71
2022/12/31 01:09:17;;;;;;;1.40;1.30;;;12.10;99.90;;;;;;5072283;28;20489;-72
2022/12/31 01:11:46;;;;;;;1.30;1.20;;;12.20;99.90;;;;;;5072675;28;20804;-71
2022/12/31 01:14:15;;;;;;;1.50;1.40;;;12.20;99.90;;;;;;5072234;28;20876;-72
2022/12/31 01:16:44;;;;;;;2.57;1.47;;;12.30;99.90;;;;;;5072502;28;20913;-71
2022/12/31 01:19:12;;;;;;;2.00;1.53;;;12.30;99.90;;;;;;5071641;28;20470;-71
2022/12/31 01:21:40;;;;;;;1.40;1.30;;;12.40;99.90;;;;;;5071931;28;20449;-72
2022/12/31 01:24:08;;;;;;;1.40;1.30;;;12.30;99.90;;;;;;5071510;28;20559;-72
2022/12/31 01:26:36;;;;;;;1.70;1.40;;;12.40;99.90;;;;;;5072547;28;20450;-72
2022/12/31 01:29:04;;;;;;;1.40;1.30;;;12.40;99.90;;;;;;5071779;28;20513;-71
2022/12/31 01:31:32;;;;;;;1.40;1.30;;;12.40;99.90;;;;;;5072155;28;20457;-72
2022/12/31 01:33:59;;;;;;;2.40;1.50;;;12.50;99.90;;;;;;5069326;28;20934;-71
2022/12/31 01:36:27;;;;;;;1.30;1.20;;;12.50;99.90;;;;;;5063948;28;20445;-72
2022/12/31 01:38:54;;;;;;;1.30;1.20;;;12.50;99.90;;;;;;5072048;28;20455;-71
2022/12/31 01:41:23;;;;;;;1.40;1.30;;;12.50;99.90;;;;;;5071707;28;20453;-71
2022/12/31 01:43:53;;;;;;;1.50;1.40;;;12.50;99.90;;;;;;5071700;28;20457;-71
2022/12/31 01:46:28;;;;;;;1.30;1.20;;;12.50;99.90;;;;;;5071490;28;20454;-72
2022/12/31 01:49:03;;;;;;;1.40;1.30;;;12.50;99.90;;;;;;5071677;28;20939;-72
2022/12/31 01:54:54;;;;;;;1.20;1.10;;;12.50;99.90;;;;;;5071552;28;20409;-72
2022/12/31 01:57:23;;;;;;;1.57;1.47;;;12.50;99.90;;;;;;5071190;28;20994;-72
2022/12/31 01:59:50;;;;;;;3.37;1.40;;;12.50;99.90;;;;;;5070603;28;20531;-72
2022/12/31 02:02:18;;;;;;;1.83;1.20;;;12.50;99.90;;;;;;5071765;28;20503;-72
2022/12/31 02:04:46;;;;;;;1.00;0.90;;;12.50;99.90;;;;;;5071224;28;20465;-72
2022/12/31 02:07:12;;;;;;;1.20;1.10;;;12.70;99.90;;;;;;5071561;28;20459;-72
2022/12/31 02:09:40;;;;;;;1.10;1.00;;;13.00;99.90;;;;;;5071308;28;21172;-71
2022/12/31 02:12:09;;;;;;;1.10;1.00;;;13.10;99.90;;;;;;5071271;28;20446;-72
2022/12/31 02:14:39;;;;;;;1.00;0.90;;;13.30;99.90;;;;;;5070887;28;20458;-71
2022/12/31 02:17:12;;;;;;;1.10;1.00;;;13.40;99.90;;;;;;5071498;28;20754;-71
2022/12/31 02:20:19;;;;;;;1.10;1.00;;;13.40;99.90;;;;;;5071197;28;20469;-71
2022/12/31 02:23:03;;;;;;;2.20;1.10;;;13.50;99.90;;;;;;5071321;28;20459;-72
2022/12/31 02:25:43;;;;;;;1.27;1.00;;;13.50;99.90;;;;;;5062860;28;21030;-71
2022/12/31 02:28:25;;;;;;;1.30;1.20;;;13.50;99.90;;;;;;5071410;28;20813;-71
2022/12/31 02:31:00;;;;;;;1.10;1.00;;;13.50;99.90;;;;;;5071447;28;20479;-73
2022/12/31 02:33:32;;;;;;;1.13;1.03;;;13.40;99.90;;;;;;5070964;28;20460;-73
2022/12/31 02:36:02;;;;;;;1.30;1.20;;;13.40;99.90;;;;;;5071100;28;21000;-72
2022/12/31 02:38:34;;;;;;;1.07;0.97;;;13.40;99.90;;;;;;5071353;28;20529;-73
2022/12/31 02:41:01;;;;;;;1.40;1.30;;;13.40;99.90;;;;;;5069356;28;20481;-72
2022/12/31 02:43:28;;;;;;;1.83;1.00;;;13.40;99.90;;;;;;5070843;28;20506;-72
2022/12/31 02:46:06;;;;;;;1.30;1.20;;;13.40;99.90;;;;;;5071127;28;20875;-71
2022/12/31 02:48:40;;;;;;;1.50;1.07;;;13.40;99.90;;;;;;5071507;28;20440;-72
2022/12/31 02:51:32;;;;;;;1.10;1.00;;;13.40;99.90;;;;;;5070763;28;20847;-72
2022/12/31 02:54:15;;;;;;;1.00;0.90;;;13.40;99.90;;;;;;5070950;28;20449;-73
2022/12/31 02:56:49;;;;;;;1.10;1.00;;;13.30;99.90;;;;;;5070815;28;20513;-73
2022/12/31 03:02:13;;;;;;;1.87;1.10;;;13.30;99.90;;;;;;5067507;28;20438;-72
2022/12/31 03:04:41;;;;;;;4.70;1.10;;;13.30;99.90;;;;;;5070765;28;20992;-72
2022/12/31 03:07:11;;;;;;;1.97;1.50;;;13.30;99.90;;;;;;5070405;28;20445;-72
2022/12/31 03:09:38;;;;;;;3.33;1.10;;;13.30;99.90;;;;;;5071968;28;20975;-72
2022/12/31 03:14:51;;;;;;;1.17;1.07;;;13.30;99.90;;;;;;5069169;28;20469;-72
2022/12/31 03:17:19;;;;;;;1.20;1.10;;;13.40;99.90;;;;;;5074411;28;20856;-71
2022/12/31 03:22:31;;;;;;;1.20;1.10;;;13.50;99.90;;;;;;5074798;28;20475;-72
2022/12/31 03:27:46;;;;;;;1.20;1.10;;;13.60;99.90;;;;;;5075089;28;20945;-72
2022/12/31 03:30:14;;;;;;;1.30;1.20;;;13.70;99.90;;;;;;5073106;28;20481;-72
2022/12/31 03:32:44;;;;;;;1.23;1.10;;;13.70;99.90;;;;;;5074873;28;20445;-72
2022/12/31 03:35:11;;;;;;;1.30;1.20;;;13.60;99.90;;;;;;5073875;28;20464;-72
2022/12/31 03:37:38;;;;;;;1.63;1.20;;;13.60;99.90;;;;;;5074415;28;20487;-73
2022/12/31 03:40:07;;;;;;;1.53;1.43;;;13.60;99.90;;;;;;5073426;28;21351;-72
2022/12/31 03:42:34;;;;;;;1.77;1.20;;;13.70;99.90;;;;;;5066712;28;20449;-72
2022/12/31 03:45:00;;;;;;;1.57;1.47;;;13.70;99.90;;;;;;5074102;28;20460;-72
2022/12/31 03:47:27;;;;;;;1.30;1.20;;;13.70;99.90;;;;;;5074236;28;20455;-72
2022/12/31 03:49:56;;;;;;;1.60;1.50;;;13.70;99.90;;;;;;5073574;28;20522;-72
2022/12/31 03:52:22;;;;;;;2.23;1.30;;;13.70;99.90;;;;;;5073738;28;20502;-72
2022/12/31 03:54:49;;;;;;;2.13;1.70;;;13.80;99.90;;;;;;5073983;28;20956;-72
2022/12/31 03:57:16;;;;;;;1.40;1.30;;;13.80;99.90;;;;;;5073780;28;20903;-72
2022/12/31 03:59:42;;;;;;;3.20;1.70;;;13.90;99.90;;;;;;5072918;28;20474;-72
2022/12/31 04:02:09;;;;;;;2.77;1.50;;;13.90;99.90;;;;;;5073767;28;20522;-72
2022/12/31 04:04:36;;;;;;;7.03;1.47;;;14.00;99.90;;;;;;5073829;28;20453;-73
2022/12/31 04:07:04;;;;;;;2.00;1.80;;;14.00;99.90;;;;;;5073445;28;20510;-72
2022/12/31 04:09:30;;;;;;;1.47;1.37;;;14.00;99.90;;;;;;5073434;28;20476;-72
2022/12/31 04:11:57;;;;;;;1.70;1.60;;;14.00;99.90;;;;;;5073940;28;20862;-72
2022/12/31 04:14:23;;;;;;;1.70;1.50;;;14.00;99.90;;;;;;5073149;28;20830;-72
2022/12/31 04:16:50;;;;;;;1.67;1.40;;;14.00;99.90;;;;;;5073759;28;20525;-72
2022/12/31 04:19:17;;;;;;;1.70;1.60;;;14.00;99.90;;;;;;5073019;28;20491;-71
2022/12/31 04:21:44;;;;;;;2.03;1.50;;;14.10;99.90;;;;;;5072485;28;20497;-72
2022/12/31 04:24:12;;;;;;;1.60;1.50;;;14.00;99.90;;;;;;5073308;28;20850;-71
2022/12/31 04:26:39;;;;;;;1.60;1.50;;;14.00;99.90;;;;;;5073705;28;20448;-71
2022/12/31 04:29:05;;;;;;;1.50;1.40;;;14.00;99.90;;;;;;5073141;28;21004;-72
2022/12/31 04:31:32;;;;;;;1.67;1.50;;;14.00;99.90;;;;;;5073230;28;20944;-71
2022/12/31 04:33:59;;;;;;;1.70;1.60;;;14.00;99.90;;;;;;5073140;28;20449;-72
2022/12/31 04:36:25;;;;;;;1.53;1.43;;;14.00;99.90;;;;;;5073142;28;20466;-72
2022/12/31 04:38:52;;;;;;;1.60;1.50;;;14.10;99.90;;;;;;5073456;28;20482;-72
2022/12/31 04:41:20;;;;;;;1.90;1.80;;;14.10;99.90;;;;;;5072328;28;20459;-71
2022/12/31 04:43:49;;;;;;;1.50;1.40;;;14.10;99.90;;;;;;5073199;28;20904;-71
2022/12/31 04:46:17;;;;;;;1.70;1.60;;;14.10;99.90;;;;;;5072659;28;20457;-71
2022/12/31 04:48:44;;;;;;;1.83;1.63;;;14.10;99.90;;;;;;5073082;28;21016;-72
2022/12/31 04:51:12;;;;;;;1.60;1.50;;;14.10;99.90;;;;;;5072341;28;20476;-71
2022/12/31 04:53:39;;;;;;;8.00;1.77;;;14.10;99.90;;;;;;5073029;28;20452;-72
2022/12/31 04:56:07;;;;;;;1.70;1.60;;;14.10;99.90;;;;;;5072773;28;20453;-72
2022/12/31 04:58:36;;;;;;;3.20;1.57;;;14.10;99.90;;;;;;5072546;28;20480;-72
2022/12/31 05:01:02;;;;;;;2.07;1.53;;;14.10;99.90;;;;;;5072295;28;20541;-71
2022/12/31 05:03:29;;;;;;;1.40;1.30;;;14.10;99.90;;;;;;5072661;28;20458;-71
2022/12/31 05:06:01;;;;;;;2.47;1.30;;;14.10;99.90;;;;;;5072797;28;20525;-72
2022/12/31 05:08:28;;;;;;;1.60;1.50;;;14.10;99.90;;;;;;5072771;28;20445;-71
2022/12/31 05:10:54;;;;;;;2.40;1.70;;;14.10;99.90;;;;;;5072340;28;20525;-71
2022/12/31 05:13:21;;;;;;;1.53;1.43;;;14.20;99.90;;;;;;5072238;28;20448;-71
2022/12/31 05:15:49;;;;;;;2.20;1.50;;;14.20;99.90;;;;;;5072595;28;20449;-73
2022/12/31 05:18:17;;;;;;;1.67;1.50;;;14.20;99.90;;;;;;5071997;28;20520;-72
2022/12/31 05:20:44;;;;;;;1.33;1.23;;;14.20;99.90;;;;;;5072265;28;20468;-71
2022/12/31 05:23:11;;;;;;;2.53;1.50;;;14.30;99.90;;;;;;5072318;28;20456;-72
2022/12/31 05:25:37;;;;;;;1.57;1.47;;;14.30;99.90;;;;;;5072354;28;20512;-72
2022/12/31 05:28:04;;;;;;;3.97;1.70;;;14.30;99.90;;;;;;5072476;28;20501;-72
2022/12/31 05:30:31;;;;;;;4.70;1.60;;;14.30;99.90;;;;;;5068478;28;20525;-72
2022/12/31 05:32:59;;;;;;;2.93;1.50;;;14.30;99.90;;;;;;5072132;28;20444;-72
2022/12/31 05:35:26;;;;;;;2.53;1.67;;;14.30;99.90;;;;;;5071985;28;20448;-72
2022/12/31 05:37:52;;;;;;;1.70;1.60;;;14.30;99.90;;;;;;5072024;28;20558;-72
2022/12/31 05:40:19;;;;;;;1.40;1.30;;;14.30;99.90;;;;;;5071172;28;20501;-72
2022/12/31 05:42:46;;;;;;;1.70;1.60;;;14.30;99.90;;;;;;5072025;28;20450;-72
2022/12/31 05:45:13;;;;;;;2.37;1.53;;;14.30;99.90;;;;;;5071787;28;20461;-72
2022/12/31 05:47:40;;;;;;;2.03;1.57;;;14.20;99.90;;;;;;5071767;28;20454;-72
2022/12/31 05:50:09;;;;;;;2.63;1.67;;;14.20;99.90;;;;;;5071592;28;20997;-71
2022/12/31 05:52:36;;;;;;;1.97;1.77;;;14.20;99.90;;;;;;5071628;28;20475;-72
2022/12/31 05:55:03;;;;;;;1.80;1.70;;;14.20;99.90;;;;;;5071906;28;20498;-71
2022/12/31 05:57:30;;;;;;;2.87;1.60;;;14.20;99.90;;;;;;5071205;28;20465;-72
2022/12/31 05:59:57;;;;;;;2.43;1.90;;;14.30;99.90;;;;;;5071071;28;20535;-72
2022/12/31 06:02:24;;;;;;;2.17;1.97;;;14.30;99.90;;;;;;5071465;28;20998;-71
2022/12/31 06:04:50;;;;;;;1.80;1.70;;;14.40;99.90;;;;;;5071198;28;20457;-71
2022/12/31 06:07:18;;;;;;;2.10;1.90;;;14.40;99.90;;;;;;5071309;28;20514;-72
2022/12/31 06:09:45;;;;;;;1.67;1.57;;;14.30;99.90;;;;;;5071429;28;20476;-72
2022/12/31 06:12:11;;;;;;;2.40;1.80;;;14.40;99.90;;;;;;5071529;28;20456;-72
2022/12/31 06:14:38;;;;;;;3.00;1.60;;;14.40;99.90;;;;;;5071335;28;20451;-72
2022/12/31 06:17:05;;;;;;;3.87;1.80;;;14.40;99.90;;;;;;5071528;28;20508;-72
2022/12/31 06:19:31;;;;;;;2.07;1.60;;;14.40;99.90;;;;;;5070504;28;20497;-71
2022/12/31 06:21:58;;;;;;;9.90;2.10;;;14.40;99.90;;;;;;5071667;28;20860;-72
2022/12/31 06:24:26;;;;;;;1.87;1.70;;;14.40;99.90;;;;;;5070858;28;20508;-72
2022/12/31 06:26:52;;;;;;;3.00;2.10;;;14.40;99.90;;;;;;5071197;28;20461;-71
2022/12/31 06:29:19;;;;;;;6.60;1.97;;;14.40;99.90;;;;;;5070874;28;20522;-71
2022/12/31 06:31:46;;;;;;;3.27;1.70;;;14.40;99.90;;;;;;5071261;28;21006;-72
2022/12/31 06:34:12;;;;;;;2.20;1.70;;;14.40;99.90;;;;;;5070705;28;20516;-72
2022/12/31 06:36:39;;;;;;;2.60;1.90;;;14.40;99.90;;;;;;5070984;28;20880;-72
2022/12/31 06:39:06;;;;;;;6.33;1.90;;;14.50;99.90;;;;;;5070651;28;20485;-72
2022/12/31 06:41:35;;;;;;;2.07;1.87;;;14.50;99.90;;;;;;5070396;28;20459;-72
2022/12/31 06:44:01;;;;;;;2.17;1.60;;;14.50;99.90;;;;;;5069960;28;20960;-72
2022/12/31 06:46:28;;;;;;;3.30;2.00;;;14.60;99.90;;;;;;5071349;28;20456;-72
2022/12/31 06:48:55;;;;;;;2.13;1.53;;;14.60;99.90;;;;;;5070839;28;20495;-72
2022/12/31 06:51:22;;;;;;;2.87;2.67;;;14.60;99.90;;;;;;5071103;28;20459;-72
2022/12/31 06:53:50;;;;;;;6.40;2.10;;;14.60;99.90;;;;;;5070922;28;20457;-72
2022/12/31 06:56:19;;;;;;;2.40;2.00;;;14.70;99.90;;;;;;5070865;28;20457;-71
2022/12/31 06:58:48;;;;;;;4.03;1.90;;;14.70;99.90;;;;;;5070524;28;20485;-72
2022/12/31 07:01:36;;;;;;;2.00;1.60;;;14.70;99.90;;;;;;5070663;28;20547;-71
2022/12/31 07:04:19;;;;;;;1.70;1.60;;;14.70;99.90;;;;;;5070499;28;20449;-71
2022/12/31 07:06:51;;;;;;;2.23;2.13;;;14.80;99.90;;;;;;5071019;28;20470;-72
2022/12/31 07:09:26;;;;;;;2.47;1.83;;;14.80;99.90;;;;;;5070299;28;20478;-72
2022/12/31 07:12:01;;;;;;;3.83;2.00;;;14.80;99.90;;;;;;5070837;28;20456;-71
2022/12/31 07:14:35;;;;;;;2.07;1.80;;;14.90;99.90;;;;;;5070600;28;20815;-71
2022/12/31 07:17:12;;;;;;;1.80;1.70;;;14.90;99.90;;;;;;5070711;28;20508;-72
2022/12/31 07:19:48;;;;;;;1.83;1.70;;;14.90;99.90;;;;;;5070091;28;20485;-72
2022/12/31 07:22:16;;;;;;;5.67;1.50;;;14.90;99.90;;;;;;5070227;28;20461;-70
2022/12/31 07:24:44;;;;;;;2.30;1.40;;;15.00;99.90;;;;;;5062556;28;20507;-71
2022/12/31 07:27:21;;;;;;;1.50;1.40;;;15.00;99.90;;;;;;5070745;28;20480;-71
2022/12/31 07:30:01;;;;;;;2.80;2.47;;;15.10;99.90;;;;;;5070293;28;20466;-71
2022/12/31 07:32:42;;;;;;;5.10;2.00;;;15.10;99.90;;;;;;5070455;28;20579;-71
2022/12/31 07:35:16;;;;;;;1.93;1.40;;;15.10;99.90;;;;;;5070568;28;20499;-71
2022/12/31 07:37:51;;;;;;;2.37;1.90;;;15.10;99.90;;;;;;5070847;28;20440;-71
2022/12/31 07:40:24;;;;;;;2.87;1.70;;;15.10;99.90;;;;;;5069320;28;20485;-72
2022/12/31 07:43:04;;;;;;;2.00;1.73;;;15.10;99.90;;;;;;5070313;28;20454;-71
2022/12/31 07:45:40;;;;;;;2.40;1.90;;;15.10;99.90;;;;;;5069891;28;20578;-71
2022/12/31 07:48:21;;;;;;;3.37;1.50;;;15.00;99.90;;;;;;5069678;28;20853;-71
2022/12/31 07:50:48;;;;;;;1.60;1.50;;;15.00;99.90;;;;;;5068972;28;20448;-76
2022/12/31 07:53:15;;;;;;;2.37;1.60;;;15.00;99.90;;;;;;5070408;28;20454;-74
2022/12/31 07:55:42;;;;;;;1.80;1.70;;;15.10;99.90;;;;;;5070357;28;20501;-74
2022/12/31 07:58:19;;;;;;;1.70;1.60;;;15.10;99.90;;;;;;5073731;28;20519;-73
2022/12/31 08:00:47;;;;;;;3.50;1.80;;;15.10;99.90;;;;;;5065798;28;20470;-74
2022/12/31 08:03:25;;;;;;;2.23;1.90;;;15.10;99.90;;;;;;5074077;28;20459;-75
2022/12/31 08:06:00;;;;;;;2.20;1.60;;;15.10;99.90;;;;;;5073787;28;20927;-71
2022/12/31 08:08:36;;;;;;;2.93;1.73;;;15.10;99.90;;;;;;5073956;28;20495;-72
2022/12/31 08:11:12;;;;;;;3.13;2.03;;;15.10;99.90;;;;;;5073695;28;20529;-71
2022/12/31 08:13:41;;;;;;;1.77;1.67;;;15.10;99.90;;;;;;5068824;28;20522;-71
2022/12/31 08:16:12;;;;;;;2.77;1.70;;;15.10;99.90;;;;;;5073510;28;20455;-71
2022/12/31 08:18:39;;;;;;;2.00;1.80;;;15.10;99.90;;;;;;5073051;28;21040;-71
2022/12/31 08:21:19;;;;;;;2.13;2.03;;;15.20;99.90;;;;;;5072921;28;20988;-71
2022/12/31 08:23:58;;;;;;;1.80;1.70;;;15.20;99.90;;;;;;5068383;28;20456;-71
2022/12/31 08:26:32;;;;;;;2.00;1.87;;;15.20;99.90;;;;;;5071578;28;20885;-70
2022/12/31 08:29:13;;;;;;;4.37;1.70;;;15.20;99.90;;;;;;5071597;28;20446;-70
2022/12/31 08:31:52;;;;;;;4.30;1.93;;;15.20;99.90;;;;;;5072309;28;20480;-71
2022/12/31 08:34:27;;;;;;;1.70;1.60;;;15.20;99.90;;;;;;5069145;28;20451;-69
2022/12/31 08:37:01;;;;;;;2.40;1.70;;;15.20;99.90;;;;;;5072217;28;20454;-70
2022/12/31 08:39:42;;;;;;;2.37;1.90;;;15.20;99.90;;;;;;5069115;28;20913;-70
2022/12/31 08:42:18;;;;;;;2.70;2.00;;;15.20;99.90;;;;;;5067657;28;20504;-69
2022/12/31 08:44:51;;;;;;;1.60;1.50;;;15.20;99.90;;;;;;5068102;28;20456;-69
2022/12/31 08:47:26;;;;;;;2.47;1.90;;;15.20;99.90;;;;;;5069141;28;20450;-69
2022/12/31 08:49:54;;;;;;;1.70;1.60;;;15.20;99.90;;;;;;5069018;28;20453;-69
2022/12/31 08:52:24;;;;;;;2.03;1.67;;;15.20;99.90;;;;;;5068895;28;20988;-69
2022/12/31 08:54:51;;;;;;;3.73;1.80;;;15.20;99.90;;;;;;5068818;28;20445;-70
2022/12/31 08:57:26;;;;;;;5.57;1.60;;;15.20;99.90;;;;;;5069295;28;20942;-70
2022/12/31 09:00:02;;;;;;;2.43;2.23;;;15.30;99.90;;;;;;5068843;28;20490;-70
2022/12/31 09:02:53;;;;;;;6.20;1.60;;;15.30;99.90;;;;;;5068764;28;20514;-71
2022/12/31 09:05:25;;;;;;;4.07;1.60;;;15.30;99.90;;;;;;5068377;28;20529;-70
2022/12/31 09:08:04;;;;;;;1.67;1.57;;;15.30;99.90;;;;;;5067987;28;20458;-71
2022/12/31 09:10:34;;;;;;;4.00;1.97;;;15.30;99.90;;;;;;5068089;28;20953;-70
2022/12/31 09:13:11;;;;;;;3.97;1.80;;;15.30;99.90;;;;;;5069173;28;20462;-70
2022/12/31 09:15:43;;;;;;;3.40;1.93;;;15.30;99.90;;;;;;5068512;28;21283;-72
2022/12/31 09:18:13;;;;;;;2.90;1.70;;;15.30;99.90;;;;;;5068676;28;20880;-71
2022/12/31 09:20:40;;;;;;;1.93;1.60;;;15.30;99.90;;;;;;5068327;28;20932;-70
2022/12/31 09:23:07;;;;;;;2.40;2.20;;;15.30;99.90;;;;;;5068783;28;20457;-71
2022/12/31 09:25:41;;;;;;;3.10;1.60;;;15.30;99.90;;;;;;5068031;28;20927;-70
2022/12/31 09:28:18;;;;;;;1.63;1.53;;;15.30;99.90;;;;;;5069177;28;20439;-71
2022/12/31 09:30:53;;;;;;;1.53;1.43;;;15.40;99.90;;;;;;5068229;28;20483;-70
2022/12/31 09:33:34;;;;;;;2.97;1.67;;;15.40;99.90;;;;;;5067790;28;20874;-71
2022/12/31 09:36:03;;;;;;;2.10;1.90;;;15.40;99.90;;;;;;5068178;28;20491;-71
2022/12/31 09:38:35;;;;;;;4.00;1.70;;;15.30;99.90;;;;;;5068513;28;20988;-70
2022/12/31 09:41:13;;;;;;;2.13;1.60;;;15.30;99.90;;;;;;5068160;28;20542;-71
2022/12/31 09:44:32;;;;;;;2.43;1.80;;;15.30;99.90;;;;;;5068304;28;20441;-71
2022/12/31 09:47:27;;;;;;;1.70;1.60;;;15.30;99.90;;;;;;5067874;28;21024;-70
2022/12/31 09:50:20;;;;;;;1.83;1.70;;;15.40;99.90;;;;;;5068375;28;20536;-70
2022/12/31 09:53:17;;;;;;;2.10;1.90;;;15.40;99.90;;;;;;5068608;28;20491;-71
2022/12/31 09:55:49;;;;;;;4.10;1.97;;;15.50;99.90;;;;;;5067592;28;20469;-70
2022/12/31 09:58:37;;;;;;;2.13;1.90;;;15.50;99.90;;;;;;5068603;28;20870;-70
2022/12/31 10:01:16;;;;;;;2.33;2.13;;;15.60;99.90;;;;;;5067474;28;21025;-71
2022/12/31 10:04:08;;;;;;;1.93;1.67;;;15.60;99.90;;;;;;5067793;28;20449;-71
2022/12/31 10:06:46;;;;;;;5.80;2.27;;;15.60;99.90;;;;;;5067832;28;20611;-71
2022/12/31 10:09:39;;;;;;;6.93;2.20;;;15.60;99.90;;;;;;5068382;28;20459;-70
2022/12/31 10:12:23;;;;;;;2.07;1.93;;;15.60;99.90;;;;;;5067824;28;20436;-70
2022/12/31 10:15:16;;;;;;;3.37;2.00;;;15.60;99.90;;;;;;5067893;28;20432;-70
2022/12/31 10:17:58;;;;;;;2.07;1.50;;;15.60;99.90;;;;;;5067903;28;20512;-71
2022/12/31 10:20:40;;;;;;;1.70;1.60;;;15.60;99.90;;;;;;5066682;28;20912;-71
2022/12/31 10:23:30;;;;;;;1.90;1.80;;;15.60;99.90;;;;;;5067469;28;20436;-71
2022/12/31 10:26:10;;;;;;;7.23;1.90;;;15.70;99.90;;;;;;5067140;28;20466;-71
2022/12/31 10:28:48;;;;;;;2.03;1.80;;;15.80;99.90;;;;;;5067645;28;20454;-70
2022/12/31 10:31:37;;;;;;;2.00;1.80;;;15.90;99.90;;;;;;5066216;28;20478;-70
2022/12/31 10:34:14;;;;;;;1.87;1.73;;;15.90;99.90;;;;;;5067684;28;20427;-71
2022/12/31 10:36:52;;;;;;;5.27;2.20;;;16.00;99.90;;;;;;5067365;28;20447;-71
2022/12/31 10:39:30;;;;;;;2.47;2.20;;;16.10;99.90;;;;;;5066164;28;20766;-71
2022/12/31 10:42:36;;;;;;;6.37;2.17;;;16.20;99.90;;;;;;5065280;28;20970;-71
2022/12/31 10:45:33;;;;;;;3.80;2.20;;;16.40;99.90;;;;;;5053006;28;20661;-71
2022/12/31 10:48:33;;;;;;;3.20;2.00;;;16.50;99.90;;;;;;5066701;28;20475;-70
2022/12/31 10:51:37;;;;;;;2.20;2.00;;;16.50;99.90;;;;;;5066854;28;21376;-72
2022/12/31 10:54:28;;;;;;;1.87;1.67;;;16.40;99.90;;;;;;5066912;28;20500;-70
2022/12/31 10:57:20;;;;;;;3.50;1.90;;;16.30;99.90;;;;;;5067150;28;20458;-70
2022/12/31 11:00:01;;;;;;;2.90;1.80;;;16.20;99.90;;;;;;5066993;28;20534;-70
2022/12/31 11:03:13;;;;;;;3.30;1.93;;;16.20;99.90;;;;;;5065999;28;20432;-71
2022/12/31 11:06:12;;;;;;;2.50;1.80;;;16.10;99.90;;;;;;5046908;28;20454;-70
2022/12/31 11:09:01;;;;;;;4.50;2.20;;;16.10;99.90;;;;;;5037042;28;20455;-70
2022/12/31 11:11:36;;;;;;;3.40;1.77;;;16.10;99.90;;;;;;5065728;28;21008;-70
2022/12/31 11:14:41;;;;;;;5.20;1.67;;;16.10;99.90;;;;;;5066187;28;20508;-70
2022/12/31 11:17:21;;;;;;;3.63;2.30;;;16.10;99.90;;;;;;5065550;28;20503;-70
2022/12/31 11:20:00;;;;;;;6.90;2.10;;;16.00;99.90;;;;;;5066253;28;20492;-70
2022/12/31 11:22:44;;;;;;;4.50;1.90;;;16.00;99.90;;;;;;5066148;28;20455;-70
2022/12/31 11:25:22;;;;;;;2.70;2.13;;;15.90;99.90;;;;;;5066324;28;20459;-70
2022/12/31 11:28:18;;;;;;;3.93;2.57;;;16.00;99.90;;;;;;5066747;28;20510;-69
2022/12/31 11:31:02;;;;;;;4.23;2.17;;;15.90;99.90;;;;;;5066029;28;20503;-69
2022/12/31 11:33:41;;;;;;;2.73;2.10;;;15.90;99.90;;;;;;5069034;28;20474;-68
2022/12/31 11:36:17;;;;;;;3.73;1.97;;;16.00;99.90;;;;;;5070321;28;20421;-70
2022/12/31 11:38:50;;;;;;;3.20;2.13;;;15.90;99.90;;;;;;5069682;28;20600;-69
2022/12/31 11:41:22;;;;;;;4.73;2.27;;;15.90;99.90;;;;;;5070160;28;20481;-69
2022/12/31 11:43:56;;;;;;;2.50;1.80;;;15.90;99.90;;;;;;5070213;28;20469;-69
2022/12/31 11:46:57;;;;;;;2.87;2.50;;;15.90;99.90;;;;;;5068333;28;20933;-70
2022/12/31 11:49:52;;;;;;;4.17;2.77;;;15.90;99.90;;;;;;5035340;28;20532;-69
2022/12/31 11:52:43;;;;;;;2.27;2.10;;;15.90;99.90;;;;;;5069258;28;20422;-70
2022/12/31 11:55:34;;;;;;;7.33;2.00;;;15.80;99.90;;;;;;5068920;28;20979;-70
2022/12/31 11:58:12;;;;;;;2.17;1.97;;;15.80;99.90;;;;;;5069174;28;21124;-70
2022/12/31 12:00:43;;;;;;;3.43;2.20;;;15.80;99.90;;;;;;5069245;28;20554;-70
2022/12/31 12:03:11;;;;;;;4.33;2.10;;;15.80;99.90;;;;;;5069406;28;21375;-70
2022/12/31 12:05:39;;;;;;;2.40;2.20;;;15.80;99.90;;;;;;5068435;28;20442;-70
2022/12/31 12:08:06;;;;;;;2.70;2.07;;;15.80;99.90;;;;;;5069399;28;20457;-70
2022/12/31 12:10:38;;;;;;;3.10;2.20;;;15.80;99.90;;;;;;5068762;28;20473;-70
2022/12/31 12:13:14;;;;;;;3.67;1.77;;;15.80;99.90;;;;;;5069766;28;20832;-70
2022/12/31 12:15:46;;;;;;;4.17;2.33;;;15.90;99.90;;;;;;5068315;28;20437;-71
2022/12/31 12:18:25;;;;;;;2.90;2.23;;;15.90;99.90;;;;;;5068498;28;21171;-71
2022/12/31 12:20:51;;;;;;;3.60;2.20;;;15.90;99.90;;;;;;5068940;28;20472;-71
2022/12/31 12:23:23;;;;;;;3.80;2.10;;;16.00;99.90;;;;;;5068857;28;20745;-70
2022/12/31 12:25:51;;;;;;;2.43;2.10;;;16.00;99.90;;;;;;5067970;28;20551;-71
2022/12/31 12:28:20;;;;;;;3.33;2.07;;;16.00;99.90;;;;;;5068950;28;20429;-70
2022/12/31 12:30:54;;;;;;;3.90;2.17;;;16.00;99.90;;;;;;5068812;28;20546;-70
2022/12/31 12:33:21;;;;;;;2.33;2.13;;;16.10;99.90;;;;;;5068815;28;21010;-71
2022/12/31 12:35:48;;;;;;;3.33;2.43;;;16.10;99.90;;;;;;5069276;28;20504;-70
2022/12/31 12:38:17;;;;;;;4.93;2.60;;;16.10;99.90;;;;;;5068869;28;20422;-70
2022/12/31 12:40:53;;;;;;;3.57;2.23;;;16.20;99.90;;;;;;5068342;28;20479;-70
2022/12/31 12:43:23;;;;;;;3.00;2.20;;;16.10;99.90;;;;;;5068321;28;20487;-70
2022/12/31 12:45:52;;;;;;;6.77;2.63;;;16.10;99.90;;;;;;5068843;28;20445;-70
2022/12/31 12:48:25;;;;;;;3.53;2.27;;;16.20;99.90;;;;;;5068896;28;20509;-70
2022/12/31 12:50:52;;;;;;;2.40;2.20;;;16.30;99.90;;;;;;5069074;28;20468;-71
2022/12/31 12:53:36;;;;;;;3.47;2.20;;;16.60;99.90;;;;;;5067835;28;20426;-70
2022/12/31 12:56:12;;;;;;;2.63;2.20;;;16.80;99.90;;;;;;5068674;28;20806;-70
2022/12/31 12:58:52;;;;;;;2.87;2.40;;;17.10;99.90;;;;;;5068032;28;20429;-70
2022/12/31 13:01:29;;;;;;;4.20;2.30;;;17.30;99.90;;;;;;5068301;28;21393;-70
2022/12/31 13:04:17;;;;;;;2.53;2.10;;;17.40;99.90;;;;;;5066618;28;20446;-70
2022/12/31 13:06:57;;;;;;;4.20;2.03;;;17.30;99.90;;;;;;5068359;28;20495;-71
2022/12/31 13:09:37;;;;;;;4.23;2.27;;;17.40;99.90;;;;;;5066473;28;21049;-69
2022/12/31 13:12:14;;;;;;;3.30;2.30;;;17.60;99.90;;;;;;5068421;28;20470;-69
2022/12/31 13:14:47;;;;;;;3.97;2.17;;;17.70;99.90;;;;;;5068100;28;20438;-69
2022/12/31 13:17:34;;;;;;;3.67;2.00;;;17.60;99.90;;;;;;5067910;28;20449;-70
2022/12/31 13:20:08;;;;;;;3.50;2.33;;;17.60;99.90;;;;;;5066578;28;20549;-70
2022/12/31 13:22:41;;;;;;;2.50;2.23;;;17.50;99.90;;;;;;5067372;28;20943;-71
2022/12/31 13:25:21;;;;;;;3.93;2.27;;;17.30;99.90;;;;;;5067276;28;20437;-70
2022/12/31 13:27:50;;;;;;;2.80;2.30;;;17.30;99.90;;;;;;5068414;28;20462;-70
2022/12/31 13:30:20;;;;;;;4.43;2.60;;;17.10;99.90;;;;;;5066933;28;20529;-70
2022/12/31 13:32:52;;;;;;;4.07;2.77;;;17.10;99.90;;;;;;5068207;28;20437;-70